Scottsville, Texas
Current Conditions -  °F | °C
As of 12:15 AM on Wednesday 28 Jan 2015 (Local Time) from KASL Reporting Station
Clear Clear  
Wind Chill: 48°   Ceiling: Unl
Heat Index: 48°   Visibility: NA
Dew Point: 42°   Wind: 0mph
Humidity: 79%   Direction: NA
Pressure: 30.17"   Gusts: NA
Location:  32.54°N, 94.24°W
Report Text: KASL 280615Z AUTO 00000KT CLR 09/06 A3017 RMK AO1 T00900055
Loading
Personal Weather Stations






























Interactive Weather Map New forecast layout! Learn more

10-Day Weather Forecast

Advertisements
Track Severe Weather on mobile